Terminal Aerodrome Forecast
Issued by NWS

Home | Current Version | Previous Version | Text Only | Print | Product List | Glossary On
Versions: 1 2 3 4 5 6 7 8 9 10 11 12 13 14 15 16 17 18 19 20 21 22 23 24 25 26 27 28 29 30 31 32 33 34 35 36 37 38 39 40 41 42
000
FTUS45 KREV 220928 AAA
TAFTRK
TAF AMD
KTRK 220928Z 2209/2306 VRB04KT 1SM -SN BR BKN004 OVC010
     FM221100 VRB03KT 5SM -SHSN BR BKN020 OVC028
     FM221400 21005KT P6SM VCFG SCT002 BKN035
     FM221700 25010G16KT P6SM SCT040
     FM230200 25003KT P6SM VCSH BKN025=

USA.gov is the U.S. government's official web portal to all federal, state and local government web resources and services.